Map

Track Data

SID SEASON NUMBER BASIN SUBBASIN NAME ISO_TIME NATURE LAT LON WMO_WIND WMO_PRES WMO_AGENCY TRACK_TYPE DIST2LAND LANDFALL IFLAG USA_AGENCY USA_ATCF_ID USA_LAT USA_LON USA_RECORD USA_STATUS USA_WIND USA_PRES USA_SSHS USA_R34_NE USA_R34_SE USA_R34_SW USA_R34_NW USA_R50_NE USA_R50_SE USA_R50_SW USA_R50_NW USA_R64_NE USA_R64_SE USA_R64_SW USA_R64_NW USA_POCI USA_ROCI USA_RMW USA_EYE TOKYO_LAT TOKYO_LON TOKYO_GRADE TOKYO_WIND TOKYO_PRES TOKYO_R50_DIR TOKYO_R50_LONG TOKYO_R50_SHORT TOKYO_R30_DIR TOKYO_R30_LONG TOKYO_R30_SHORT TOKYO_LAND CMA_LAT CMA_LON CMA_CAT CMA_WIND CMA_PRES HKO_LAT HKO_LON HKO_CAT HKO_WIND HKO_PRES NEWDELHI_LAT NEWDELHI_LON NEWDELHI_GRADE NEWDELHI_WIND NEWDELHI_PRES NEWDELHI_CI NEWDELHI_DP NEWDELHI_POCI REUNION_LAT REUNION_LON REUNION_TYPE REUNION_WIND REUNION_PRES REUNION_TNUM REUNION_CI REUNION_RMW REUNION_R34_NE REUNION_R34_SE REUNION_R34_SW REUNION_R34_NW REUNION_R50_NE REUNION_R50_SE REUNION_R50_SW REUNION_R50_NW REUNION_R64_NE REUNION_R64_SE REUNION_R64_SW REUNION_R64_NW BOM_LAT BOM_LON BOM_TYPE BOM_WIND BOM_PRES BOM_TNUM BOM_CI BOM_RMW BOM_R34_NE BOM_R34_SE BOM_R34_SW BOM_R34_NW BOM_R50_NE BOM_R50_SE BOM_R50_SW BOM_R50_NW BOM_R64_NE BOM_R64_SE BOM_R64_SW BOM_R64_NW BOM_ROCI BOM_POCI BOM_EYE BOM_POS_METHOD BOM_PRES_METHOD NADI_LAT NADI_LON NADI_CAT NADI_WIND NADI_PRES WELLINGTON_LAT WELLINGTON_LON WELLINGTON_WIND WELLINGTON_PRES DS824_LAT DS824_LON DS824_STAGE DS824_WIND DS824_PRES TD9636_LAT TD9636_LON TD9636_STAGE TD9636_WIND TD9636_PRES TD9635_LAT TD9635_LON TD9635_WIND TD9635_PRES TD9635_ROCI NEUMANN_LAT NEUMANN_LON NEUMANN_CLASS NEUMANN_WIND NEUMANN_PRES MLC_LAT MLC_LON MLC_CLASS MLC_WIND MLC_PRES USA_GUST BOM_GUST BOM_GUST_PER REUNION_GUST REUNION_GUST_PER USA_SEAHGT USA_SEARAD_NE USA_SEARAD_SE USA_SEARAD_SW USA_SEARAD_NW STORM_SPEED STORM_DIR
2020133N10129 2020 15 WP MM VONGFONG 2020-05-11 18:00:00 NR 9.60000 128.800 PROVISIONAL 288 288 O_____________ tcvitals WP012020 9.60000 128.800 25 1004 -1 1007 126 35 5 350
2020133N10129 2020 15 WP MM VONGFONG 2020-05-11 21:00:00 NR 9.82749 128.770 PROVISIONAL 293 293 P_____________ WP012020 9.82749 128.770 27 1003 -1 1008 130 35 5 2
2020133N10129 2020 15 WP MM VONGFONG 2020-05-12 00:00:00 NR 10.1000 128.800 PROVISIONAL 302 302 O_____________ tcvitals WP012020 10.1000 128.800 29 1003 -1 1009 135 35 6 13
2020133N10129 2020 15 WP MM VONGFONG 2020-05-12 03:00:00 NR 10.4425 128.915 PROVISIONAL 325 325 P_____________ WP012020 10.4425 128.915 29 1002 -1 1008 127 32 7 16
2020133N10129 2020 15 WP MM VONGFONG 2020-05-12 06:00:00 NR 10.8000 129.000 PROVISIONAL 350 338 O_____________ tcvitals WP012020 10.8000 129.000 29 1002 -1 1007 120 30 7 356
2020133N10129 2020 15 WP MM VONGFONG 2020-05-12 09:00:00 NR 11.1150 128.885 PROVISIONAL 338 328 P_____________ WP012020 11.1150 128.885 29 1002 -1 1007 115 30 6 342
2020133N10129 2020 15 WP MM VONGFONG 2020-05-12 12:00:00 NR 11.4000 128.800 PROVISIONAL 330 330 O_____________ tcvitals WP012020 11.4000 128.800 29 1002 -1 1007 110 30 6 12
2020133N10129 2020 15 WP MM VONGFONG 2020-05-12 15:00:00 NR 11.7026 129.007 PROVISIONAL 357 357 P_____________ WP012020 11.7026 129.007 40 999 0 22 45 12 1007 130 22 6 38
2020133N10129 2020 15 WP MM VONGFONG 2020-05-12 18:00:00 NR 11.9000 129.200 PROVISIONAL 384 373 O_____________ tcvitals WP012020 11.9000 129.200 51 996 0 45 90 25 1008 150 14 2 29
2020133N10129 2020 15 WP MM VONGFONG 2020-05-12 21:00:00 NR 11.8725 129.110 PROVISIONAL 373 349 P_____________ WP012020 11.8725 129.110 55 994 0 47 85 32 1009 162 14 3 251
2020133N10129 2020 15 WP MM VONGFONG 2020-05-13 00:00:00 NR 11.8000 128.900 PROVISIONAL 349 331 O_____________ tcvitals WP012020 11.8000 128.900 60 992 0 50 80 40 40 1010 175 14 4 271
2020133N10129 2020 15 WP MM VONGFONG 2020-05-13 03:00:00 NR 11.8775 128.723 PROVISIONAL 331 314 P_____________ WP012020 11.8775 128.723 65 987 1 67 70 47 55 1008 167 14 4 297
2020133N10129 2020 15 WP MM VONGFONG 2020-05-13 06:00:00 NR 12.0000 128.500 PROVISIONAL 314 299 O_____________ tcvitals WP012020 12.0000 128.500 70 982 1 85 60 55 70 1007 160 14 5 297
2020133N10129 2020 15 WP MM VONGFONG 2020-05-13 09:00:00 NR 12.1224 128.238 PROVISIONAL 289 261 P_____________ WP012020 12.1224 128.238 79 976 1 82 55 50 75 1007 165 9 6 289
2020133N10129 2020 15 WP MM VONGFONG 2020-05-13 12:00:00 NR 12.2000 127.900 PROVISIONAL 261 217 O_____________ tcvitals WP012020 12.2000 127.900 89 970 2 80 50 45 80 1007 170 5 8 273
2020133N10129 2020 15 WP MM VONGFONG 2020-05-13 15:00:00 NR 12.1651 127.465 PROVISIONAL 217 163 P_____________ WP012020 12.1651 127.465 97 963 3 70 57 57 72 1007 172 5 9 264
2020133N10129 2020 15 WP MM VONGFONG 2020-05-13 18:00:00 NR 12.1000 127.000 PROVISIONAL 163 120 O_____________ tcvitals WP012020 12.1000 127.000 105 957 3 60 65 70 65 1008 175 5 9 265
2020133N10129 2020 15 WP MM VONGFONG 2020-05-13 21:00:00 NR 12.0849 126.600 PROVISIONAL 120 76 P_____________ WP012020 12.0849 126.600 97 963 3 62 62 57 62 1008 175 5 8 270
2020133N10129 2020 15 WP MM VONGFONG 2020-05-14 00:00:00 NR 12.1000 126.200 PROVISIONAL 76 24 O_____________ tcvitals WP012020 12.1000 126.200 89 970 2 65 60 45 60 1008 175 5 9 274
2020133N10129 2020 15 WP MM VONGFONG 2020-05-14 03:00:00 NR 12.1426 125.720 PROVISIONAL 24 0 P_____________ WP012020 12.1426 125.720 94 966 2 70 60 47 55 1008 182 5 9 276
2020133N10129 2020 15 WP MM VONGFONG 2020-05-14 06:00:00 NR 12.2000 125.300 PROVISIONAL 0 0 O_____________ tcvitals WP012020 12.2000 125.300 99 962 3 75 60 50 50 1008 190 5 6 280
2020133N10129 2020 15 WP MM VONGFONG 2020-05-14 09:00:00 NR 12.2421 125.130 PROVISIONAL 0 0 P_____________ WP012020 12.2421 125.130 91 968 2 72 60 50 50 1008 190 5 4 284
2020133N10129 2020 15 WP MM VONGFONG 2020-05-14 12:00:00 NR 12.3000 124.900 PROVISIONAL 0 0 O_____________ tcvitals WP012020 12.3000 124.900 84 974 2 70 60 50 50 1008 190 5 8 277
2020133N10129 2020 15 WP MM VONGFONG 2020-05-14 15:00:00 NR 12.3479 124.287 PROVISIONAL 10 10 P_____________ WP012020 12.3479 124.287 74 980 1 55 50 42 45 1007 167 5 13 279
2020133N10129 2020 15 WP MM VONGFONG 2020-05-14 18:00:00 NR 12.5000 123.600 PROVISIONAL 15 10 O_____________ tcvitals WP012020 12.5000 123.600 64 987 1 40 40 35 40 1006 145 5 13 294
2020133N10129 2020 15 WP MM VONGFONG 2020-05-14 21:00:00 NR 12.8548 123.113 PROVISIONAL 24 0 P_____________ WP012020 12.8548 123.113 64 987 1 50 45 35 42 1006 145 5 12 312
2020133N10129 2020 15 WP MM VONGFONG 2020-05-15 00:00:00 NR 13.3000 122.700 PROVISIONAL 0 0 O_____________ tcvitals WP012020 13.3000 122.700 64 987 1 60 50 35 45 1006 145 5 12 315
2020133N10129 2020 15 WP MM VONGFONG 2020-05-15 03:00:00 NR 13.6954 122.259 PROVISIONAL 0 0 P_____________ WP012020 13.6954 122.259 62 988 0 52 47 35 37 1006 147 7 11 316
2020133N10129 2020 15 WP MM VONGFONG 2020-05-15 06:00:00 NR 14.1000 121.900 PROVISIONAL 10 0 O_____________ tcvitals WP012020 14.1000 121.900 60 990 0 45 45 35 30 1006 150 10 10 326
2020133N10129 2020 15 WP MM VONGFONG 2020-05-15 09:00:00 NR 14.4978 121.700 PROVISIONAL 10 0 P_____________ WP012020 14.4978 121.700 56 992 0 9 339
2020133N10129 2020 15 WP MM VONGFONG 2020-05-15 12:00:00 NR 14.9616 121.553 PROVISIONAL 10 0 I_____________ tcvitals WP012020 14.9616 121.553 52 994 0 11 343
2020133N10129 2020 15 WP MM VONGFONG 2020-05-15 15:00:00 NR 15.5103 121.382 PROVISIONAL 0 0 P_____________ WP012020 15.5103 121.382 48 996 0 13 341
2020133N10129 2020 15 WP MM VONGFONG 2020-05-15 18:00:00 NR 16.2000 121.100 PROVISIONAL 0 0 O_____________ tcvitals WP012020 16.2000 121.100 45 998 0 30 30 1006 150 10 18 331
2020133N10129 2020 15 WP MM VONGFONG 2020-05-15 21:00:00 NR 17.0960 120.481 PROVISIONAL 0 0 P_____________ WP012020 17.0960 120.481 40 1000 0 1006 150 10 21 330
2020133N10129 2020 15 WP MM VONGFONG 2020-05-16 00:00:00 NR 18.0000 120.000 PROVISIONAL 52 52 O_____________ tcvitals WP012020 18.0000 120.000 35 1002 0 80 1006 150 10 17 349
2020133N10129 2020 15 WP MM VONGFONG 2020-05-16 03:00:00 NR 18.7249 120.136 PROVISIONAL 62 61 P_____________ WP012020 18.7249 120.136 30 1003 -1 1006 140 15 14 20
2020133N10129 2020 15 WP MM VONGFONG 2020-05-16 06:00:00 NR 19.3000 120.500 PROVISIONAL 84 84 O_____________ tcvitals WP012020 19.3000 120.500 25 1005 -1 1006 130 20 13 30
2020133N10129 2020 15 WP MM VONGFONG 2020-05-16 09:00:00 NR 19.8049 120.790 PROVISIONAL 134 134 P_____________ WP012020 19.8049 120.790 22 1005 -1 1006 130 20 9 25
2020133N10129 2020 15 WP MM VONGFONG 2020-05-16 12:00:00 NR 20.1000 120.900 PROVISIONAL 167 167 O_____________ tcvitals WP012020 20.1000 120.900 19 1005 -1 1006 130 20 3 338
2020133N10129 2020 15 WP MM VONGFONG 2020-05-16 15:00:00 NR 20.1279 120.657 PROVISIONAL 168 162 P_____________ WP012020 20.1279 120.657 22 1004 -1 1005 122 30 7 261
2020133N10129 2020 15 WP MM VONGFONG 2020-05-16 18:00:00 NR 20.0000 120.200 PROVISIONAL 168 O_____________ tcvitals WP012020 20.0000 120.200 25 1003 -1 1005 115 40 9 253

Digital Typhoon Data and Search

About IBTrACS Database

This database is a web-friendly format of International Best Track Archive for Climate Stewardship (IBTrACS), a global best track data archive curated by NOAA dating back to 1842.

Updated: 2021-10-27